Time;durP1;ratioP1;P1;durP2;ratioP2;P2;SDS_P1;SDS_P2;PMS_P1;PMS_P2;Temp;Humidity;BMP_temperature;BMP_pressure;BME280_temperature;BME280_humidity;BME280_pressure;Samples;Min_cycle;Max_cycle;Signal;HPM_P1;HPM_P2
2022/10/17 00:01:34;;;;;;;37.03;14.37;;;;;;;12.03;100.00;100520.00;5035527;28;20256;-70
2022/10/17 00:03:59;;;;;;;29.67;14.20;;;;;;;11.90;100.00;100515.47;5044282;28;20209;-70
2022/10/17 00:06:25;;;;;;;15.17;12.90;;;;;;;11.98;100.00;100522.00;5052313;28;20213;-70
2022/10/17 00:08:50;;;;;;;13.80;12.47;;;;;;;11.95;100.00;100531.50;5047157;28;20175;-70
2022/10/17 00:11:20;;;;;;;23.80;14.30;;;;;;;12.08;100.00;100524.00;5037435;28;20739;-70
2022/10/17 00:13:48;;;;;;;15.60;13.10;;;;;;;12.13;100.00;100534.06;5038013;28;20326;-70
2022/10/17 00:16:15;;;;;;;36.67;16.80;;;;;;;12.13;100.00;100540.97;5052512;28;20191;-70
2022/10/17 00:18:40;;;;;;;28.10;15.97;;;;;;;12.24;100.00;100539.47;5051583;28;20197;-70
2022/10/17 00:21:13;;;;;;;64.23;18.30;;;;;;;12.29;100.00;100540.97;5041081;28;20283;-70
2022/10/17 00:23:38;;;;;;;40.97;17.17;;;;;;;12.18;100.00;100544.97;5037895;28;20317;-70
2022/10/17 00:26:04;;;;;;;43.33;15.97;;;;;;;12.09;100.00;100548.88;5052467;28;20212;-70
2022/10/17 00:28:30;;;;;;;68.30;15.23;;;;;;;12.07;100.00;100550.69;5040767;28;20181;-70
2022/10/17 00:30:57;;;;;;;66.63;17.70;;;;;;;12.20;100.00;100556.00;5035685;28;20664;-70
2022/10/17 00:33:22;;;;;;;55.73;16.87;;;;;;;12.23;100.00;100560.16;5033890;28;20173;-70
2022/10/17 00:35:48;;;;;;;45.13;14.37;;;;;;;12.11;100.00;100554.75;5052324;28;20238;-70
2022/10/17 00:38:13;;;;;;;116.23;19.83;;;;;;;12.17;100.00;100561.34;5052315;28;20181;-70
2022/10/17 00:40:38;;;;;;;108.20;17.37;;;;;;;12.08;100.00;100561.81;5040969;28;20233;-71
2022/10/17 00:43:05;;;;;;;70.17;15.93;;;;;;;12.17;100.00;100563.91;5050418;28;20194;-70
2022/10/17 00:45:30;;;;;;;38.97;13.57;;;;;;;12.14;100.00;100566.66;5052187;28;20184;-70
2022/10/17 00:48:07;;;;;;;47.60;14.03;;;;;;;12.07;100.00;100563.59;5051726;28;20189;-71
2022/10/17 00:50:35;;;;;;;50.03;15.60;;;;;;;12.05;100.00;100556.84;5041818;28;20282;-70
2022/10/17 00:53:03;;;;;;;57.60;12.77;;;;;;;11.93;100.00;100560.88;5036717;28;20185;-70
2022/10/17 00:55:37;;;;;;;41.53;13.40;;;;;;;12.02;100.00;100560.41;5052093;28;20239;-70
2022/10/17 00:58:04;;;;;;;92.63;17.27;;;;;;;12.13;100.00;100561.59;5051665;28;20538;-70
2022/10/17 01:00:29;;;;;;;46.27;15.33;;;;;;;12.12;100.00;100563.34;5041250;28;20671;-70
2022/10/17 01:02:54;;;;;;;33.17;12.80;;;;;;;12.08;100.00;100566.97;5036637;28;20205;-70
2022/10/17 01:05:20;;;;;;;15.27;11.43;;;;;;;11.96;100.00;100558.16;5051918;28;20189;-71
2022/10/17 01:07:47;;;;;;;19.27;12.73;;;;;;;12.01;100.00;100552.78;5051606;28;20180;-71
2022/10/17 01:10:13;;;;;;;13.10;11.80;;;;;;;11.92;100.00;100544.56;5040109;28;20180;-70
2022/10/17 01:12:51;;;;;;;12.20;11.20;;;;;;;11.95;100.00;100546.97;5041334;28;20190;-70
2022/10/17 01:15:22;;;;;;;12.10;10.20;;;;;;;11.73;100.00;100543.88;5047245;28;20182;-70
2022/10/17 01:18:02;;;;;;;13.37;11.27;;;;;;;11.69;100.00;100550.13;5052006;28;20192;-70
2022/10/17 01:20:43;;;;;;;12.07;10.97;;;;;;;11.69;100.00;100543.19;5041156;28;20229;-70
2022/10/17 01:23:27;;;;;;;10.90;9.80;;;;;;;11.75;100.00;100542.06;5038712;28;20217;-70
2022/10/17 01:25:59;;;;;;;11.90;10.67;;;;;;;11.55;100.00;100549.06;5036304;28;20177;-70
2022/10/17 01:28:58;;;;;;;12.97;10.80;;;;;;;11.59;100.00;100549.75;5051647;28;20185;-70
2022/10/17 01:31:34;;;;;;;14.87;13.37;;;;;;;11.59;100.00;100550.56;5029376;28;20287;-70
2022/10/17 01:34:07;;;;;;;15.57;12.93;;;;;;;11.62;100.00;100547.84;5047070;28;20185;-70
2022/10/17 01:36:49;;;;;;;14.83;13.33;;;;;;;11.53;100.00;100562.94;5051534;28;20178;-70
2022/10/17 01:39:43;;;;;;;15.83;13.07;;;;;;;11.46;100.00;100552.97;5032229;28;20275;-70
2022/10/17 01:42:24;;;;;;;13.63;11.97;;;;;;;11.53;100.00;100556.03;5050335;28;20221;-71
2022/10/17 01:45:15;;;;;;;13.13;11.57;;;;;;;11.51;100.00;100562.19;5051202;28;20185;-71
2022/10/17 01:47:42;;;;;;;15.10;12.67;;;;;;;11.54;100.00;100562.88;5046495;28;20174;-71
2022/10/17 01:50:15;;;;;;;12.70;11.50;;;;;;;11.47;100.00;100564.09;5030147;28;20195;-70
2022/10/17 01:52:51;;;;;;;13.07;11.77;;;;;;;11.41;100.00;100560.09;5034848;28;20593;-71
2022/10/17 01:55:25;;;;;;;12.77;11.57;;;;;;;11.43;100.00;100560.81;5051118;28;20205;-70
2022/10/17 01:57:58;;;;;;;12.47;11.27;;;;;;;11.44;100.00;100561.69;5050873;28;20521;-71
2022/10/17 02:00:26;;;;;;;13.53;12.23;;;;;;;11.40;100.00;100560.16;5038624;28;20783;-70
2022/10/17 02:02:56;;;;;;;13.93;12.63;;;;;;;11.34;100.00;100563.88;5059371;28;20197;-70
2022/10/17 02:05:27;;;;;;;19.60;12.27;;;;;;;11.37;100.00;100555.16;5053142;28;20580;-71
2022/10/17 02:07:52;;;;;;;15.90;12.93;;;;;;;11.37;100.00;100553.41;5053538;28;20174;-70
2022/10/17 02:10:35;;;;;;;12.63;10.93;;;;;;;11.25;100.00;100557.44;5043997;28;20630;-70
2022/10/17 02:13:18;;;;;;;21.60;12.67;;;;;;;11.15;100.00;100558.81;5041502;28;20190;-70
2022/10/17 02:16:20;;;;;;;27.60;13.27;;;;;;;11.05;100.00;100557.59;5041770;28;20265;-70
2022/10/17 02:19:03;;;;;;;46.97;14.70;;;;;;;11.08;100.00;100554.88;5053963;28;20192;-72
2022/10/17 02:21:52;;;;;;;22.60;11.90;;;;;;;11.09;100.00;100549.66;5043134;28;20251;-70
2022/10/17 02:24:40;;;;;;;48.33;12.20;;;;;;;11.12;100.00;100551.25;5054249;28;20644;-70
2022/10/17 02:27:13;;;;;;;20.77;13.17;;;;;;;11.18;100.00;100545.78;5054453;28;20542;-71
2022/10/17 02:29:47;;;;;;;14.07;12.70;;;;;;;11.12;100.00;100548.66;5054105;28;20193;-71
2022/10/17 02:32:23;;;;;;;15.83;12.27;;;;;;;11.09;100.00;100552.22;5044507;28;20288;-71
2022/10/17 02:34:54;;;;;;;36.73;12.27;;;;;;;11.04;100.00;100549.06;5054410;28;20176;-71
2022/10/17 02:37:24;;;;;;;65.70;14.00;;;;;;;11.03;100.00;100555.09;5053706;28;20185;-71
2022/10/17 02:39:49;;;;;;;35.67;13.30;;;;;;;10.86;100.00;100550.78;5053874;28;20200;-71
2022/10/17 02:42:16;;;;;;;15.17;10.33;;;;;;;11.02;100.00;100545.72;5013584;28;20309;-71
2022/10/17 02:44:43;;;;;;;13.57;11.33;;;;;;;11.11;100.00;100542.69;5069076;28;20227;-70
2022/10/17 02:47:22;;;;;;;25.97;12.23;;;;;;;11.04;100.00;100556.78;5054548;28;20185;-70
2022/10/17 02:49:51;;;;;;;10.37;9.50;;;;;;;11.11;100.00;100557.28;5056133;28;20243;-70
2022/10/17 02:52:26;;;;;;;12.47;11.20;;;;;;;11.11;100.00;100557.28;5029194;28;20275;-70
2022/10/17 02:55:02;;;;;;;11.93;10.83;;;;;;;11.07;100.00;100555.78;5040731;28;20540;-70
2022/10/17 02:57:34;;;;;;;11.93;10.80;;;;;;;11.15;100.00;100563.97;5053915;28;20185;-70
2022/10/17 03:00:02;;;;;;;11.10;10.17;;;;;;;11.10;100.00;100558.19;5053578;28;20173;-70
2022/10/17 03:02:37;;;;;;;11.20;10.10;;;;;;;11.07;100.00;100554.03;4998960;28;20236;-70
2022/10/17 03:05:02;;;;;;;10.50;9.50;;;;;;;10.93;100.00;100559.88;5053832;28;20181;-70
2022/10/17 03:07:27;;;;;;;10.10;9.17;;;;;;;11.04;100.00;100561.06;5048998;28;20518;-70
2022/10/17 03:09:53;;;;;;;10.30;9.30;;;;;;;10.97;100.00;100551.06;5051604;28;20318;-71
2022/10/17 03:12:18;;;;;;;10.57;9.67;;;;;;;10.96;100.00;100558.88;5026986;28;21047;-71
2022/10/17 03:14:43;;;;;;;10.27;9.40;;;;;;;11.02;100.00;100568.06;5053303;28;20262;-71
2022/10/17 03:17:08;;;;;;;10.30;9.40;;;;;;;11.05;100.00;100567.91;5040565;28;20232;-71
2022/10/17 03:19:34;;;;;;;10.07;9.00;;;;;;;11.01;100.00;100571.53;5043255;28;20209;-71
2022/10/17 03:21:59;;;;;;;11.03;10.03;;;;;;;11.04;100.00;100568.78;5025479;28;20249;-70
2022/10/17 03:24:24;;;;;;;11.60;10.50;;;;;;;11.01;100.00;100572.34;5041835;28;20536;-71
2022/10/17 03:26:49;;;;;;;19.00;10.87;;;;;;;11.00;100.00;100573.25;5053166;28;20181;-71
2022/10/17 03:29:15;;;;;;;13.53;11.03;;;;;;;11.01;100.00;100580.06;5052913;28;20261;-70
2022/10/17 03:31:40;;;;;;;13.60;11.40;;;;;;;10.89;100.00;100581.53;4997970;28;20619;-70
2022/10/17 03:34:05;;;;;;;15.50;11.57;;;;;;;11.03;100.00;100580.84;5049475;28;20182;-70
2022/10/17 03:36:31;;;;;;;22.63;11.20;;;;;;;11.10;100.00;100587.38;5053327;28;20574;-70
2022/10/17 03:38:56;;;;;;;14.77;12.03;;;;;;;11.13;100.00;100589.78;5052512;28;20193;-71
2022/10/17 03:41:21;;;;;;;14.47;11.50;;;;;;;11.06;100.00;100593.56;5034584;28;20218;-70
2022/10/17 03:43:46;;;;;;;25.53;13.90;;;;;;;10.98;100.00;100593.13;5036536;28;20206;-71
2022/10/17 03:46:12;;;;;;;15.33;12.20;;;;;;;10.95;100.00;100588.94;5052604;28;20647;-71
2022/10/17 03:48:37;;;;;;;12.30;11.10;;;;;;;10.91;100.00;100584.84;5052695;28;20177;-71
2022/10/17 03:51:05;;;;;;;14.07;12.33;;;;;;;10.98;100.00;100601.66;5037972;28;20226;-70
2022/10/17 03:53:31;;;;;;;13.03;10.73;;;;;;;10.96;100.00;100605.22;5033386;28;20181;-71
2022/10/17 03:56:17;;;;;;;13.13;11.83;;;;;;;11.04;100.00;100605.69;5052823;28;20177;-71
2022/10/17 03:58:43;;;;;;;12.67;11.43;;;;;;;11.10;100.00;100605.38;5047565;28;20178;-70
2022/10/17 04:01:12;;;;;;;12.83;11.30;;;;;;;11.19;100.00;100603.25;5035789;28;20217;-71
2022/10/17 04:03:37;;;;;;;17.10;11.57;;;;;;;11.09;100.00;100600.31;5029852;28;20240;-71
2022/10/17 04:06:04;;;;;;;13.30;10.93;;;;;;;10.88;100.00;100613.31;5047188;28;20182;-71
2022/10/17 04:08:29;;;;;;;12.53;11.20;;;;;;;10.99;100.00;100607.66;5048005;28;20236;-71
2022/10/17 04:11:04;;;;;;;12.33;11.03;;;;;;;10.97;100.00;100612.03;5034315;28;20622;-71
2022/10/17 04:13:30;;;;;;;12.60;11.30;;;;;;;11.06;100.00;100618.47;5042295;28;20266;-71
2022/10/17 04:16:00;;;;;;;17.40;11.73;;;;;;;11.17;100.00;100610.25;5047707;28;20189;-71
2022/10/17 04:18:26;;;;;;;11.43;10.23;;;;;;;10.98;100.00;100611.13;5046906;28;20299;-70
2022/10/17 04:20:52;;;;;;;10.80;9.70;;;;;;;11.16;100.00;100601.66;5041039;28;20312;-70
2022/10/17 04:23:18;;;;;;;13.43;10.50;;;;;;;11.11;100.00;100606.22;5038277;28;20633;-70
2022/10/17 04:25:44;;;;;;;11.37;9.13;;;;;;;11.01;100.00;100610.97;5051244;28;20248;-70
2022/10/17 04:28:09;;;;;;;10.87;9.87;;;;;;;11.15;100.00;100612.91;5051427;28;20204;-70
2022/10/17 04:30:35;;;;;;;11.93;9.57;;;;;;;11.23;100.00;100615.91;5040271;28;20214;-69
2022/10/17 04:33:00;;;;;;;11.20;9.80;;;;;;;11.26;100.00;100618.34;5044247;28;20178;-69
2022/10/17 04:35:26;;;;;;;10.67;9.67;;;;;;;11.27;100.00;100622.56;5052159;28;20181;-70
2022/10/17 04:37:51;;;;;;;10.57;9.47;;;;;;;11.23;100.00;100623.63;5052201;28;20182;-69
2022/10/17 04:40:16;;;;;;;11.17;10.07;;;;;;;11.27;100.00;100617.41;5041193;28;20179;-69
2022/10/17 04:42:42;;;;;;;14.10;9.83;;;;;;;11.26;100.00;100613.19;5036386;28;20641;-69
2022/10/17 04:45:07;;;;;;;10.70;9.60;;;;;;;11.17;100.00;100616.22;5051880;28;20178;-71
2022/10/17 04:47:32;;;;;;;11.33;9.73;;;;;;;11.17;100.00;100620.53;5049490;28;20185;-71
2022/10/17 04:49:58;;;;;;;10.23;9.13;;;;;;;11.07;100.00;100623.53;5051350;28;20182;-70
2022/10/17 04:52:24;;;;;;;12.83;10.10;;;;;;;11.18;100.00;100627.38;5026159;28;20320;-70
2022/10/17 04:54:50;;;;;;;11.83;10.47;;;;;;;11.19;100.00;100629.00;5051572;28;20279;-70
2022/10/17 04:57:15;;;;;;;12.00;10.57;;;;;;;11.19;100.00;100629.84;5042257;28;20185;-70
2022/10/17 04:59:40;;;;;;;12.27;10.67;;;;;;;11.08;100.00;100634.69;5049590;28;20166;-70
2022/10/17 05:02:06;;;;;;;14.63;11.47;;;;;;;11.03;100.00;100627.19;5029535;28;20241;-70
2022/10/17 05:04:31;;;;;;;33.83;12.50;;;;;;;11.05;100.00;100635.69;5047949;28;20632;-71
2022/10/17 05:06:56;;;;;;;15.53;11.10;;;;;;;10.98;100.00;100624.00;5051407;28;20188;-70
2022/10/17 05:09:22;;;;;;;15.30;10.77;;;;;;;10.84;100.00;100628.97;5050814;28;20560;-70
2022/10/17 05:11:47;;;;;;;21.23;11.83;;;;;;;10.89;100.00;100624.44;5039812;28;20225;-71
2022/10/17 05:14:14;;;;;;;31.10;12.80;;;;;;;10.92;100.00;100619.97;5038236;28;20227;-71
2022/10/17 05:16:40;;;;;;;24.30;12.30;;;;;;;10.95;100.00;100616.41;5050938;28;20186;-71
2022/10/17 05:19:05;;;;;;;28.07;12.70;;;;;;;10.79;100.00;100617.16;5047273;28;20209;-70
2022/10/17 05:21:30;;;;;;;13.73;9.87;;;;;;;10.73;100.00;100624.31;5032674;28;20228;-70
2022/10/17 05:23:56;;;;;;;31.60;12.10;;;;;;;10.91;100.00;100620.88;5049524;28;20229;-71
2022/10/17 05:26:22;;;;;;;20.03;11.47;;;;;;;10.98;100.00;100627.41;5046825;28;20212;-70
2022/10/17 05:28:48;;;;;;;26.00;13.30;;;;;;;11.00;100.00;100639.38;5042962;28;20224;-70
2022/10/17 05:31:13;;;;;;;83.50;16.20;;;;;;;10.91;100.00;100633.75;5038779;28;20224;-71
2022/10/17 05:33:39;;;;;;;61.47;17.33;;;;;;;10.88;100.00;100630.47;5029183;28;20181;-71
2022/10/17 05:36:05;;;;;;;78.00;18.77;;;;;;;10.94;100.00;100631.03;5051097;28;20235;-72
2022/10/17 05:38:31;;;;;;;54.17;16.57;;;;;;;10.89;100.00;100634.72;5051766;28;20260;-71
2022/10/17 05:41:00;;;;;;;33.20;14.40;;;;;;;10.84;100.00;100640.09;5033443;28;20605;-71
2022/10/17 05:43:27;;;;;;;53.70;16.00;;;;;;;10.85;100.00;100634.03;5035962;28;20221;-71
2022/10/17 05:45:52;;;;;;;40.50;14.70;;;;;;;10.80;100.00;100642.00;5054833;28;20272;-71
2022/10/17 05:48:18;;;;;;;30.23;13.90;;;;;;;10.80;100.00;100638.56;5055195;28;20264;-71
2022/10/17 05:50:43;;;;;;;29.70;15.50;;;;;;;10.86;100.00;100640.84;5049277;28;20220;-71
2022/10/17 05:53:09;;;;;;;27.03;15.10;;;;;;;10.84;100.00;100641.81;5065263;28;20186;-72
2022/10/17 05:55:34;;;;;;;18.53;12.37;;;;;;;10.85;100.00;100646.06;5055062;28;20188;-71
2022/10/17 05:58:00;;;;;;;28.27;14.17;;;;;;;10.89;100.00;100650.16;5050302;28;20243;-71
2022/10/17 06:00:25;;;;;;;20.77;14.53;;;;;;;10.96;100.00;100647.25;5046930;28;20216;-71
2022/10/17 06:02:50;;;;;;;26.47;14.47;;;;;;;10.98;100.00;100647.16;5044010;28;20201;-71
2022/10/17 06:05:16;;;;;;;26.93;15.50;;;;;;;10.92;100.00;100650.03;5054789;28;20268;-71
2022/10/17 06:07:41;;;;;;;32.60;15.77;;;;;;;10.83;100.00;100646.16;5054579;28;20230;-71
2022/10/17 06:10:07;;;;;;;32.97;15.13;;;;;;;10.75;100.00;100656.78;5043825;28;20173;-71
2022/10/17 06:12:32;;;;;;;26.13;14.90;;;;;;;10.77;100.00;100657.56;5049594;28;20553;-71
2022/10/17 06:14:58;;;;;;;23.50;14.43;;;;;;;10.74;100.00;100665.44;5044371;28;20197;-71
2022/10/17 06:17:23;;;;;;;18.43;13.50;;;;;;;10.82;100.00;100660.75;5069907;28;20620;-71
2022/10/17 06:19:49;;;;;;;14.27;12.13;;;;;;;10.92;100.00;100668.06;5049468;28;20198;-71
2022/10/17 06:22:14;;;;;;;14.67;11.90;;;;;;;11.20;100.00;100669.31;5036866;28;20237;-71
2022/10/17 06:24:39;;;;;;;16.87;12.33;;;;;;;11.34;100.00;100674.63;5044735;28;20265;-71
2022/10/17 06:27:05;;;;;;;12.27;10.87;;;;;;;11.40;100.00;100679.47;5053825;28;20193;-71
2022/10/17 06:29:30;;;;;;;15.80;11.70;;;;;;;11.33;100.00;100677.28;5048923;28;20180;-72
2022/10/17 06:31:55;;;;;;;16.03;11.60;;;;;;;11.43;100.00;100676.75;5039951;28;20321;-71
2022/10/17 06:34:21;;;;;;;14.17;11.10;;;;;;;11.45;100.00;100671.53;5041149;28;20581;-72
2022/10/17 06:36:46;;;;;;;14.77;11.77;;;;;;;11.63;100.00;100669.78;5054200;28;20192;-71
2022/10/17 06:39:12;;;;;;;13.40;11.40;;;;;;;11.67;100.00;100671.31;5053705;28;20252;-71
2022/10/17 06:41:38;;;;;;;13.23;10.83;;;;;;;11.62;100.00;100681.84;5033412;28;20268;-71
2022/10/17 06:44:09;;;;;;;13.00;11.10;;;;;;;11.66;100.00;100682.53;5049579;28;20255;-71
2022/10/17 06:46:35;;;;;;;12.23;10.87;;;;;;;11.78;100.00;100686.22;5054392;28;20213;-72
2022/10/17 06:49:00;;;;;;;15.20;11.27;;;;;;;11.90;100.00;100682.19;5049179;28;20260;-71
2022/10/17 06:51:25;;;;;;;13.50;10.83;;;;;;;11.96;100.00;100681.91;5035856;28;20408;-72
2022/10/17 06:53:50;;;;;;;15.43;10.17;;;;;;;12.07;100.00;100678.78;5046423;28;20196;-72
2022/10/17 06:56:16;;;;;;;13.47;10.17;;;;;;;12.48;100.00;100683.53;5053380;28;20181;-72
2022/10/17 06:58:41;;;;;;;11.20;8.13;;;;;;;13.70;100.00;100688.88;5044550;28;20186;-72
2022/10/17 07:01:09;;;;;;;9.03;7.93;;;;;;;14.77;100.00;100682.50;5014968;28;20272;-73
2022/10/17 07:03:35;;;;;;;7.43;6.67;;;;;;;14.73;100.00;100678.44;5045367;28;20349;-71
2022/10/17 07:06:01;;;;;;;9.13;6.57;;;;;;;15.54;100.00;100674.13;5036638;28;20208;-72
2022/10/17 07:08:26;;;;;;;8.40;6.20;;;;;;;15.84;100.00;100676.47;5041721;28;20619;-72
2022/10/17 07:10:52;;;;;;;8.20;5.40;;;;;;;16.67;100.00;100684.63;5041564;28;20222;-72
2022/10/17 07:13:18;;;;;;;7.20;4.57;;;;;;;17.73;100.00;100699.50;5055192;28;20184;-72
2022/10/17 07:15:44;;;;;;;8.80;5.50;;;;;;;17.81;100.00;100691.13;5040018;28;20561;-72
2022/10/17 07:18:09;;;;;;;11.33;6.30;;;;;;;17.50;100.00;100691.66;5059470;28;20188;-72
2022/10/17 07:20:35;;;;;;;11.43;6.17;;;;;;;17.30;100.00;100700.09;5027571;28;20316;-72
2022/10/17 07:23:01;;;;;;;13.57;6.10;;;;;;;16.82;100.00;100700.91;5032499;28;20230;-72
2022/10/17 07:25:27;;;;;;;8.63;5.27;;;;;;;16.58;100.00;100699.97;5049882;28;20193;-72
2022/10/17 07:27:52;;;;;;;8.23;6.07;;;;;;;16.08;100.00;100696.50;5045663;28;20178;-73
2022/10/17 07:30:19;;;;;;;8.30;5.83;;;;;;;16.04;100.00;100700.22;5013814;28;20713;-72
2022/10/17 07:32:45;;;;;;;7.60;6.20;;;;;;;15.88;100.00;100700.44;5019308;28;20200;-74
2022/10/17 07:35:11;;;;;;;19.03;6.03;;;;;;;15.88;100.00;100709.06;5044756;28;20216;-74
2022/10/17 07:37:37;;;;;;;9.20;6.00;;;;;;;15.72;100.00;100696.25;5034769;28;20653;-73
2022/10/17 07:40:05;;;;;;;6.90;6.30;;;;;;;15.63;100.00;100704.66;5042832;28;20192;-71
2022/10/17 07:42:32;;;;;;;13.03;7.00;;;;;;;15.91;100.00;100706.22;5051644;28;20671;-72
2022/10/17 07:44:57;;;;;;;7.77;6.60;;;;;;;16.00;100.00;100710.00;5053069;28;20673;-72
2022/10/17 07:47:23;;;;;;;18.53;10.33;;;;;;;16.09;100.00;100716.31;5053291;28;20181;-71
2022/10/17 07:49:48;;;;;;;11.50;7.10;;;;;;;16.25;100.00;100709.16;5046575;28;20243;-71
2022/10/17 07:52:14;;;;;;;14.07;8.30;;;;;;;16.37;100.00;100715.28;5022224;28;20233;-72
2022/10/17 07:54:40;;;;;;;8.53;6.30;;;;;;;16.56;100.00;100713.97;5033416;28;20189;-71
2022/10/17 07:57:05;;;;;;;9.50;6.07;;;;;;;16.72;100.00;100714.56;5039026;28;20190;-72
2022/10/17 08:11:15;;;;;;;9.13;5.30;;;;;;;17.29;100.00;100709.69;5076644;28;150577;-67
2022/10/17 08:13:41;;;;;;;5.83;4.87;;;;;;;17.58;100.00;100714.50;5120385;28;20262;-67
2022/10/17 08:16:09;;;;;;;7.13;4.93;;;;;;;17.93;100.00;100718.00;5088640;28;20219;-66
2022/10/17 08:18:35;;;;;;;8.50;5.83;;;;;;;17.98;100.00;100721.94;5119708;28;20206;-68
2022/10/17 08:21:05;;;;;;;8.60;4.93;;;;;;;17.72;100.00;100721.25;5095947;28;20227;-66
2022/10/17 08:23:31;;;;;;;7.53;5.00;;;;;;;17.67;100.00;100716.41;5099392;28;20167;-66
2022/10/17 08:26:00;;;;;;;8.70;4.93;;;;;;;17.46;100.00;100718.81;5091245;28;20241;-67
2022/10/17 08:28:25;;;;;;;9.20;5.00;;;;;;;17.94;100.00;100722.25;5090503;28;20274;-66
2022/10/17 08:30:50;;;;;;;6.23;4.60;;;;;;;18.44;100.00;100714.94;5099150;28;20247;-67
2022/10/17 08:33:16;;;;;;;12.10;5.40;;;;;;;18.44;100.00;100712.34;5118641;28;20175;-67
2022/10/17 08:35:41;;;;;;;6.07;5.40;;;;;;;18.64;100.00;100708.19;5128784;28;20171;-67
2022/10/17 08:38:06;;;;;;;9.70;4.80;;;;;;;19.06;100.00;100704.91;5128763;28;20183;-67
2022/10/17 08:40:32;;;;;;;6.73;4.80;;;;;;;18.97;100.00;100708.25;5122898;27;20331;-67
2022/10/17 08:43:21;;;;;;;5.17;4.47;;;;;;;18.86;100.00;100707.28;5141686;27;20175;-66
2022/10/17 08:46:01;;;;;;;5.07;4.57;;;;;;;19.25;100.00;100693.81;5116166;27;20652;-67
2022/10/17 08:48:31;;;;;;;5.50;4.50;;;;;;;19.56;100.00;100700.88;5127590;28;20175;-66
2022/10/17 08:51:06;;;;;;;8.77;4.73;;;;;;;20.32;100.00;100708.44;5120894;27;20595;-67
2022/10/17 08:53:41;;;;;;;5.90;4.27;;;;;;;20.80;100.00;100710.38;5127484;28;20636;-66
2022/10/17 08:56:33;;;;;;;7.53;4.20;;;;;;;22.40;100.00;100722.94;5129039;27;20620;-66
2022/10/17 08:58:59;;;;;;;8.23;3.70;;;;;;;23.98;97.73;100723.34;5128002;28;20187;-67
2022/10/17 09:01:47;;;;;;;6.20;3.40;;;;;;;25.22;85.52;100717.59;5121144;27;20246;-68
2022/10/17 09:04:37;;;;;;;9.50;3.35;;;;;;;25.33;81.25;100717.25;5113813;27;20176;-66
2022/10/17 09:07:21;;;;;;;3.67;3.25;;;;;;;27.51;72.00;100726.47;5100536;28;20215;-67
2022/10/17 09:10:00;;;;;;;6.95;3.05;;;;;;;27.13;69.30;100729.06;5106991;28;20702;-67
2022/10/17 09:12:53;;;;;;;7.15;3.45;;;;;;;27.35;61.68;100744.09;5092109;28;20228;-68
2022/10/17 09:15:41;;;;;;;7.60;3.10;;;;;;;28.67;56.38;100734.72;5104723;28;20614;-67
2022/10/17 09:18:16;;;;;;;4.28;2.67;;;;;;;29.27;51.14;100737.09;5096591;28;20168;-67
2022/10/17 09:20:50;;;;;;;6.47;3.13;;;;;;;29.78;49.49;100738.69;5082049;28;20227;-67
2022/10/17 09:23:23;;;;;;;4.13;3.15;;;;;;;28.87;51.06;100739.38;5091912;28;20204;-68
2022/10/17 09:25:52;;;;;;;6.53;3.17;;;;;;;28.05;54.95;100740.50;5092136;28;20200;-67
2022/10/17 09:28:20;;;;;;;4.30;2.97;;;;;;;29.67;52.96;100749.84;5095118;28;20271;-68
2022/10/17 09:30:48;;;;;;;12.80;3.00;;;;;;;31.30;46.39;100743.03;5092859;28;20556;-67
2022/10/17 09:33:27;;;;;;;6.82;2.92;;;;;;;30.88;41.97;100747.69;5103760;28;20199;-69
2022/10/17 09:35:53;;;;;;;5.00;2.80;;;;;;;31.54;42.08;100744.25;5092744;28;20184;-67
2022/10/17 09:38:21;;;;;;;5.85;2.70;;;;;;;31.57;40.86;100743.00;5093625;28;20194;-71
2022/10/17 09:41:12;;;;;;;5.88;3.08;;;;;;;30.26;44.75;100750.38;5089314;28;20230;-71
2022/10/17 09:43:38;;;;;;;5.35;2.58;;;;;;;30.82;42.77;100753.81;5089304;28;20627;-66
2022/10/17 09:46:14;;;;;;;5.00;2.95;;;;;;;28.10;55.50;100752.13;5098747;28;20238;-72
2022/10/17 09:48:48;;;;;;;6.93;2.70;;;;;;;29.92;47.12;100752.88;5108854;27;20191;-68
2022/10/17 09:51:14;;;;;;;5.22;2.85;;;;;;;31.60;44.35;100757.72;5092153;28;20274;-60
2022/10/17 09:53:43;;;;;;;10.05;3.65;;;;;;;29.93;46.10;100756.31;5078933;28;20233;-63
2022/10/17 09:56:13;;;;;;;9.95;2.83;;;;;;;29.93;49.45;100751.03;5091867;28;20192;-70
2022/10/17 09:58:41;;;;;;;7.25;2.95;;;;;;;28.81;53.49;100750.75;5090946;28;20189;-70
2022/10/17 10:01:20;;;;;;;9.13;3.10;;;;;;;27.85;59.91;100743.66;5090017;28;20235;-67
2022/10/17 10:03:46;;;;;;;5.13;2.83;;;;;;;27.50;62.23;100753.88;5088973;28;20184;-67
2022/10/17 10:06:17;;;;;;;5.68;2.90;;;;;;;24.50;81.86;100756.56;5093110;28;20291;-67
2022/10/17 10:09:03;;;;;;;6.63;2.63;;;;;;;25.26;84.82;100758.41;5093101;28;20184;-65
2022/10/17 10:11:51;;;;;;;13.98;3.28;;;;;;;24.62;88.34;100761.53;5093871;28;20235;-66
2022/10/17 10:14:28;;;;;;;7.80;2.50;;;;;;;24.65;90.78;100758.63;5088744;28;20188;-67
2022/10/17 10:16:53;;;;;;;5.65;3.40;;;;;;;24.08;93.67;100762.63;5093031;28;20194;-68
2022/10/17 10:19:25;;;;;;;12.75;2.75;;;;;;;23.65;95.05;100757.28;5092655;28;20199;-59
2022/10/17 10:21:55;;;;;;;9.38;3.60;;;;;;;23.49;98.50;100762.38;5075470;28;20220;-60
2022/10/17 10:24:22;;;;;;;3.58;3.00;;;;;;;23.30;99.98;100768.63;5076889;28;20188;-60
2022/10/17 10:26:53;;;;;;;4.07;3.08;;;;;;;23.35;100.00;100767.19;5089996;28;20599;-60
2022/10/17 10:29:23;;;;;;;6.13;2.85;;;;;;;22.83;100.00;100764.38;5079141;28;20204;-59
2022/10/17 10:31:50;;;;;;;3.25;2.55;;;;;;;22.68;100.00;100772.72;5108439;27;20314;-60
2022/10/17 10:34:25;;;;;;;4.28;2.90;;;;;;;22.69;100.00;100765.72;5090676;28;20180;-61
2022/10/17 10:36:59;;;;;;;6.63;2.85;;;;;;;22.63;100.00;100763.66;5106265;28;20199;-61
2022/10/17 10:39:33;;;;;;;7.63;2.72;;;;;;;22.40;100.00;100770.13;5091212;28;20643;-61
2022/10/17 10:42:01;;;;;;;10.07;3.30;;;;;;;22.24;100.00;100768.09;5080276;28;20235;-60
2022/10/17 10:44:29;;;;;;;6.07;2.63;;;;;;;22.43;100.00;100768.19;5089915;28;20635;-60
2022/10/17 10:47:18;;;;;;;6.33;2.93;;;;;;;22.40;100.00;100769.28;5087917;28;20204;-59
2022/10/17 10:49:44;;;;;;;8.53;3.10;;;;;;;22.67;100.00;100765.03;5105871;28;20245;-59
2022/10/17 10:52:26;;;;;;;8.53;2.77;;;;;;;22.77;100.00;100767.59;5084069;28;20232;-60
2022/10/17 10:54:59;;;;;;;6.80;2.60;;;;;;;22.77;100.00;100754.47;5091902;28;20253;-60
2022/10/17 10:57:29;;;;;;;5.30;2.90;;;;;;;22.70;100.00;100759.50;5093506;28;20177;-59
2022/10/17 11:00:05;;;;;;;2.87;2.40;;;;;;;22.76;100.00;100758.91;5089366;28;20259;-60
2022/10/17 11:02:40;;;;;;;4.73;2.47;;;;;;;22.75;100.00;100761.66;5069802;28;20287;-60
2022/10/17 11:05:28;;;;;;;5.30;2.67;;;;;;;22.93;100.00;100753.81;5074644;28;20179;-59
2022/10/17 11:08:02;;;;;;;7.93;2.60;;;;;;;22.96;100.00;100754.34;5091834;28;20183;-59
2022/10/17 11:11:12;;;;;;;4.97;2.33;;;;;;;22.94;100.00;100755.47;5083447;28;20226;-60
2022/10/17 11:13:52;;;;;;;6.07;2.47;;;;;;;22.79;100.00;100753.34;5092923;28;20196;-59
2022/10/17 11:16:36;;;;;;;5.33;2.10;;;;;;;22.60;99.47;100756.94;5077284;28;20552;-66
2022/10/17 11:19:22;;;;;;;4.03;2.10;;;;;;;22.65;99.77;100753.84;5090801;28;20188;-59
2022/10/17 11:22:06;;;;;;;3.17;2.10;;;;;;;22.80;97.87;100752.38;5095230;28;20215;-59
2022/10/17 11:24:39;;;;;;;5.77;2.00;;;;;;;22.65;95.52;100764.34;5090921;28;20285;-60
2022/10/17 11:27:06;;;;;;;9.53;2.30;;;;;;;22.72;95.77;100763.63;5089970;28;20204;-60
2022/10/17 11:29:39;;;;;;;4.00;2.03;;;;;;;22.68;91.63;100761.44;5090163;28;20208;-59
2022/10/17 11:32:22;;;;;;;8.13;2.20;;;;;;;22.75;93.83;100773.00;5053235;28;20255;-62
2022/10/17 11:34:53;;;;;;;4.13;2.47;;;;;;;22.82;93.87;100776.69;5076732;28;20255;-60